createdAt,value
2022-09-03T00:06:04.357Z,80
2022-09-03T00:16:04.715Z,80
2022-09-03T00:26:04.639Z,81
2022-09-03T00:36:04.515Z,82
2022-09-03T00:46:04.649Z,82
2022-09-03T00:56:04.714Z,82
2022-09-03T01:06:04.582Z,83
2022-09-03T01:16:04.838Z,84
2022-09-03T01:26:04.883Z,85
2022-09-03T01:36:04.622Z,85
2022-09-03T01:46:04.667Z,87
2022-09-03T01:56:04.782Z,88
2022-09-03T02:06:04.748Z,89
2022-09-03T02:16:04.763Z,90
2022-09-03T02:26:04.694Z,90
2022-09-03T02:36:04.994Z,91
2022-09-03T02:46:05.015Z,91
2022-09-03T02:56:05.017Z,92
2022-09-03T03:06:04.784Z,93
2022-09-03T03:16:04.817Z,93
2022-09-03T03:26:04.939Z,93
2022-09-03T03:36:04.825Z,94
2022-09-03T03:46:07.783Z,94
2022-09-03T03:55:10.268Z,94
2022-09-03T03:56:05.052Z,95
2022-09-03T04:06:04.885Z,95
2022-09-03T04:16:04.942Z,96
2022-09-03T04:26:05.496Z,96
2022-09-03T04:31:27.800Z,96
2022-09-03T04:36:05.707Z,96
2022-09-03T04:46:05.749Z,96
2022-09-03T04:56:05.642Z,97
2022-09-03T05:06:05.757Z,97
2022-09-03T05:16:06.942Z,98
2022-09-03T05:26:05.872Z,98
2022-09-03T05:36:05.929Z,98
2022-09-03T05:46:05.760Z,98
2022-09-03T05:56:06.026Z,98
2022-09-03T06:06:06.631Z,98
2022-09-03T06:16:06.393Z,98
2022-09-03T06:26:06.448Z,98
2022-09-03T06:36:08.771Z,97
2022-09-03T06:46:06.469Z,97
2022-09-03T06:56:07.687Z,97
2022-09-03T07:06:06.418Z,91
2022-09-03T07:16:06.523Z,80
2022-09-03T07:26:06.445Z,77
2022-09-03T07:36:06.616Z,76
2022-09-03T07:46:06.593Z,79
2022-09-03T07:56:06.796Z,90
2022-09-03T08:06:06.593Z,92
2022-09-03T08:16:06.781Z,93
2022-09-03T08:26:06.789Z,95
2022-09-03T08:36:06.640Z,96
2022-09-03T08:46:06.810Z,99
2022-09-03T08:48:14.761Z,99
2022-09-03T08:56:10.839Z,99
2022-09-03T09:06:11.314Z,99
2022-09-03T09:16:08.425Z,99
2022-09-03T09:26:08.543Z,99
2022-09-03T09:36:12.160Z,99
2022-09-03T09:46:10.748Z,99
2022-09-03T09:56:07.890Z,99
2022-09-03T10:06:08.999Z,99
2022-09-03T10:16:07.784Z,99
2022-09-03T10:26:08.387Z,99
2022-09-03T10:36:07.852Z,98
2022-09-03T10:46:08.003Z,98
2022-09-03T10:56:07.916Z,95
2022-09-03T11:06:14.345Z,93
2022-09-03T11:16:10.860Z,93
2022-09-03T11:26:08.794Z,91
2022-09-03T11:36:07.998Z,88
2022-09-03T11:46:07.979Z,87
2022-09-03T11:56:07.863Z,78
2022-09-03T12:06:07.919Z,79
2022-09-03T12:16:13.055Z,80
2022-09-03T12:26:12.939Z,79
2022-09-03T12:36:14.954Z,78
2022-09-03T12:46:13.807Z,76
2022-09-03T12:56:16.834Z,72
2022-09-03T13:02:33.585Z,72
2022-09-03T13:06:12.656Z,72
2022-09-03T13:16:11.997Z,72
2022-09-03T13:26:12.643Z,71
2022-09-03T13:36:12.499Z,71
2022-09-03T13:46:14.745Z,69
2022-09-03T13:56:12.719Z,69
2022-09-03T14:06:14.482Z,72
2022-09-03T14:16:13.897Z,70
2022-09-03T14:26:13.730Z,72
2022-09-03T14:36:20.456Z,76
2022-09-03T14:46:20.152Z,76
2022-09-03T14:46:42.915Z,79
2022-09-03T14:56:21.502Z,74
2022-09-03T15:06:28.118Z,71
2022-09-03T15:16:21.876Z,73
2022-09-03T15:26:21.234Z,76
2022-09-03T15:36:22.598Z,75
2022-09-03T15:46:21.538Z,77
2022-09-03T15:56:25.055Z,84
2022-09-03T16:06:27.130Z,88
2022-09-03T16:16:25.428Z,90
2022-09-03T16:26:25.320Z,93
2022-09-03T16:36:27.345Z,99
2022-09-03T16:46:25.316Z,99
2022-09-03T16:56:25.675Z,99
2022-09-03T17:06:25.392Z,99
2022-09-03T17:16:26.054Z,99
2022-09-03T17:24:51.279Z,99
2022-09-03T17:26:50.513Z,99
2022-09-03T17:36:29.535Z,99
2022-09-03T17:46:26.337Z,99
2022-09-03T17:56:27.760Z,99
2022-09-03T18:06:25.988Z,99
2022-09-03T18:16:25.663Z,99
2022-09-03T18:26:25.695Z,99
2022-09-03T18:36:27.113Z,99
2022-09-03T18:47:16.349Z,99
2022-09-03T18:57:11.656Z,99
2022-09-03T19:06:34.096Z,99
2022-09-03T19:14:44.431Z,99
2022-09-03T19:16:45.951Z,99
2022-09-03T19:26:34.706Z,99
2022-09-03T19:36:26.002Z,99
2022-09-03T19:46:28.377Z,99
2022-09-03T19:56:51.349Z,99
2022-09-03T20:06:55.308Z,99
2022-09-03T20:16:25.950Z,99
2022-09-03T20:26:52.959Z,99
2022-09-03T20:36:32.207Z,99
2022-09-03T20:46:27.207Z,99
2022-09-03T20:56:35.905Z,99
2022-09-03T21:06:26.032Z,99
2022-09-03T21:16:26.071Z,99
2022-09-03T21:26:53.737Z,99
2022-09-03T21:36:26.120Z,99
2022-09-03T21:46:27.332Z,99
2022-09-03T21:56:34.715Z,99
2022-09-03T22:06:51.095Z,99
2022-09-03T22:16:40.144Z,99
2022-09-03T22:26:47.591Z,99
2022-09-03T22:36:50.837Z,99
2022-09-03T22:46:46.735Z,99
2022-09-03T22:56:36.162Z,99
2022-09-03T23:06:26.185Z,99
2022-09-03T23:16:40.492Z,99
2022-09-03T23:26:26.990Z,99
2022-09-03T23:36:43.497Z,99
2022-09-03T23:46:26.242Z,99
2022-09-03T23:56:26.255Z,99
